sensor_id;sensor_type;location;lat;lon;timestamp;temperature;humidity
52495;DHT22;38405;53.212;5.660;2024-03-02T00:00:05;8.20;99.60
52495;DHT22;38405;53.212;5.660;2024-03-02T00:02:44;8.10;99.90
52495;DHT22;38405;53.212;5.660;2024-03-02T00:05:15;8.10;99.50
52495;DHT22;38405;53.212;5.660;2024-03-02T00:07:42;8.10;99.60
52495;DHT22;38405;53.212;5.660;2024-03-02T00:10:09;8.10;99.40
52495;DHT22;38405;53.212;5.660;2024-03-02T00:12:37;8.10;99.50
52495;DHT22;38405;53.212;5.660;2024-03-02T00:17:53;8.10;99.60
52495;DHT22;38405;53.212;5.660;2024-03-02T00:20:22;8.00;99.50
52495;DHT22;38405;53.212;5.660;2024-03-02T00:22:48;8.10;99.40
52495;DHT22;38405;53.212;5.660;2024-03-02T00:25:14;8.30;99.60
52495;DHT22;38405;53.212;5.660;2024-03-02T00:27:40;8.10;99.50
52495;DHT22;38405;53.212;5.660;2024-03-02T00:33:06;8.00;99.80
52495;DHT22;38405;53.212;5.660;2024-03-02T00:35:33;7.90;99.90
52495;DHT22;38405;53.212;5.660;2024-03-02T00:38:04;7.90;99.90
52495;DHT22;38405;53.212;5.660;2024-03-02T00:40:30;7.80;99.90
52495;DHT22;38405;53.212;5.660;2024-03-02T00:42:56;7.80;99.90
52495;DHT22;38405;53.212;5.660;2024-03-02T00:45:21;7.70;99.90
52495;DHT22;38405;53.212;5.660;2024-03-02T00:47:47;7.50;99.90
52495;DHT22;38405;53.212;5.660;2024-03-02T00:50:14;7.50;99.90
52495;DHT22;38405;53.212;5.660;2024-03-02T00:52:40;7.40;99.90
52495;DHT22;38405;53.212;5.660;2024-03-02T00:55:07;7.40;99.90
52495;DHT22;38405;53.212;5.660;2024-03-02T00:57:34;7.30;99.90
52495;DHT22;38405;53.212;5.660;2024-03-02T01:00:00;7.20;99.90
52495;DHT22;38405;53.212;5.660;2024-03-02T01:02:26;7.30;99.90
52495;DHT22;38405;53.212;5.660;2024-03-02T01:04:52;7.20;99.90
52495;DHT22;38405;53.212;5.660;2024-03-02T01:07:18;7.30;99.90
52495;DHT22;38405;53.212;5.660;2024-03-02T01:09:43;7.60;99.90
52495;DHT22;38405;53.212;5.660;2024-03-02T01:12:10;7.40;99.90
52495;DHT22;38405;53.212;5.660;2024-03-02T01:14:36;7.60;99.90
52495;DHT22;38405;53.212;5.660;2024-03-02T01:17:01;7.60;99.90
52495;DHT22;38405;53.212;5.660;2024-03-02T01:19:30;7.70;99.90
52495;DHT22;38405;53.212;5.660;2024-03-02T01:21:56;7.80;99.90
52495;DHT22;38405;53.212;5.660;2024-03-02T01:24:22;7.70;99.90
52495;DHT22;38405;53.212;5.660;2024-03-02T01:26:47;7.80;99.90
52495;DHT22;38405;53.212;5.660;2024-03-02T01:29:13;7.90;99.90
52495;DHT22;38405;53.212;5.660;2024-03-02T01:31:39;7.90;99.90
52495;DHT22;38405;53.212;5.660;2024-03-02T01:34:07;8.10;99.90
52495;DHT22;38405;53.212;5.660;2024-03-02T01:36:33;7.90;99.90
52495;DHT22;38405;53.212;5.660;2024-03-02T01:38:59;7.90;99.90
52495;DHT22;38405;53.212;5.660;2024-03-02T01:41:25;8.00;99.90
52495;DHT22;38405;53.212;5.660;2024-03-02T01:43:50;8.00;99.90
52495;DHT22;38405;53.212;5.660;2024-03-02T01:46:16;8.10;99.90
52495;DHT22;38405;53.212;5.660;2024-03-02T01:48:42;8.30;99.90
52495;DHT22;38405;53.212;5.660;2024-03-02T01:51:08;8.60;99.90
52495;DHT22;38405;53.212;5.660;2024-03-02T01:53:34;8.40;99.90
52495;DHT22;38405;53.212;5.660;2024-03-02T01:56:00;8.40;99.90
52495;DHT22;38405;53.212;5.660;2024-03-02T01:58:27;8.50;99.90
52495;DHT22;38405;53.212;5.660;2024-03-02T02:00:53;8.50;99.90
52495;DHT22;38405;53.212;5.660;2024-03-02T02:03:18;8.50;99.90
52495;DHT22;38405;53.212;5.660;2024-03-02T02:05:44;8.50;99.90
52495;DHT22;38405;53.212;5.660;2024-03-02T02:08:11;8.50;99.90
52495;DHT22;38405;53.212;5.660;2024-03-02T02:10:36;8.40;99.90
52495;DHT22;38405;53.212;5.660;2024-03-02T02:13:02;8.40;99.90
52495;DHT22;38405;53.212;5.660;2024-03-02T02:15:29;8.40;99.90
52495;DHT22;38405;53.212;5.660;2024-03-02T02:17:55;8.40;99.90
52495;DHT22;38405;53.212;5.660;2024-03-02T02:20:22;8.30;99.90
52495;DHT22;38405;53.212;5.660;2024-03-02T02:25:23;8.30;99.90
52495;DHT22;38405;53.212;5.660;2024-03-02T02:27:49;8.30;99.90
52495;DHT22;38405;53.212;5.660;2024-03-02T02:30:25;8.30;99.90
52495;DHT22;38405;53.212;5.660;2024-03-02T02:32:51;8.30;99.90
52495;DHT22;38405;53.212;5.660;2024-03-02T02:35:17;8.30;99.90
52495;DHT22;38405;53.212;5.660;2024-03-02T02:37:45;8.30;99.90
52495;DHT22;38405;53.212;5.660;2024-03-02T02:40:11;8.30;99.90
52495;DHT22;38405;53.212;5.660;2024-03-02T02:42:38;8.20;99.90
52495;DHT22;38405;53.212;5.660;2024-03-02T02:45:05;8.30;99.90
52495;DHT22;38405;53.212;5.660;2024-03-02T02:47:31;8.20;99.90
52495;DHT22;38405;53.212;5.660;2024-03-02T02:49:59;8.60;99.90
52495;DHT22;38405;53.212;5.660;2024-03-02T02:52:24;8.60;99.90
52495;DHT22;38405;53.212;5.660;2024-03-02T02:54:50;8.10;99.90
52495;DHT22;38405;53.212;5.660;2024-03-02T02:57:16;8.20;99.90
52495;DHT22;38405;53.212;5.660;2024-03-02T02:59:42;8.20;99.90
52495;DHT22;38405;53.212;5.660;2024-03-02T03:02:07;8.10;99.90
52495;DHT22;38405;53.212;5.660;2024-03-02T03:04:33;8.20;99.90
52495;DHT22;38405;53.212;5.660;2024-03-02T03:06:59;8.10;99.90
52495;DHT22;38405;53.212;5.660;2024-03-02T03:09:24;8.10;99.90
52495;DHT22;38405;53.212;5.660;2024-03-02T03:11:50;8.00;99.90
52495;DHT22;38405;53.212;5.660;2024-03-02T03:14:15;7.90;99.90
52495;DHT22;38405;53.212;5.660;2024-03-02T03:16:41;7.90;99.90
52495;DHT22;38405;53.212;5.660;2024-03-02T03:19:07;7.90;99.90
52495;DHT22;38405;53.212;5.660;2024-03-02T03:21:32;8.00;99.90
52495;DHT22;38405;53.212;5.660;2024-03-02T03:23:58;7.90;99.90
52495;DHT22;38405;53.212;5.660;2024-03-02T03:26:23;7.70;99.90
52495;DHT22;38405;53.212;5.660;2024-03-02T03:28:49;7.70;99.90
52495;DHT22;38405;53.212;5.660;2024-03-02T03:31:15;7.90;99.90
52495;DHT22;38405;53.212;5.660;2024-03-02T03:33:40;7.60;99.90
52495;DHT22;38405;53.212;5.660;2024-03-02T03:36:06;7.60;99.90
52495;DHT22;38405;53.212;5.660;2024-03-02T03:38:32;7.60;99.90
52495;DHT22;38405;53.212;5.660;2024-03-02T03:40:57;7.70;99.90
52495;DHT22;38405;53.212;5.660;2024-03-02T03:43:23;7.50;99.90
52495;DHT22;38405;53.212;5.660;2024-03-02T03:45:48;7.50;99.90
52495;DHT22;38405;53.212;5.660;2024-03-02T03:48:14;7.40;99.90
52495;DHT22;38405;53.212;5.660;2024-03-02T03:50:40;7.50;99.90
52495;DHT22;38405;53.212;5.660;2024-03-02T03:53:06;7.30;99.90
52495;DHT22;38405;53.212;5.660;2024-03-02T03:55:32;7.30;99.90
52495;DHT22;38405;53.212;5.660;2024-03-02T03:57:57;7.20;99.90
52495;DHT22;38405;53.212;5.660;2024-03-02T04:00:23;7.20;99.90
52495;DHT22;38405;53.212;5.660;2024-03-02T04:02:48;7.10;99.90
52495;DHT22;38405;53.212;5.660;2024-03-02T04:05:14;7.10;99.90
52495;DHT22;38405;53.212;5.660;2024-03-02T04:07:40;7.10;99.90
52495;DHT22;38405;53.212;5.660;2024-03-02T04:10:09;7.10;99.90
52495;DHT22;38405;53.212;5.660;2024-03-02T04:12:36;7.00;99.90
52495;DHT22;38405;53.212;5.660;2024-03-02T04:15:03;7.00;99.90
52495;DHT22;38405;53.212;5.660;2024-03-02T04:17:31;7.00;99.90
52495;DHT22;38405;53.212;5.660;2024-03-02T04:19:57;7.00;99.90
52495;DHT22;38405;53.212;5.660;2024-03-02T04:22:23;6.90;99.90
52495;DHT22;38405;53.212;5.660;2024-03-02T04:24:49;6.90;99.90
52495;DHT22;38405;53.212;5.660;2024-03-02T04:27:15;6.80;99.90
52495;DHT22;38405;53.212;5.660;2024-03-02T04:29:40;6.90;99.90
52495;DHT22;38405;53.212;5.660;2024-03-02T04:32:06;6.70;99.90
52495;DHT22;38405;53.212;5.660;2024-03-02T04:34:32;6.70;99.90
52495;DHT22;38405;53.212;5.660;2024-03-02T04:36:57;6.70;99.90
52495;DHT22;38405;53.212;5.660;2024-03-02T04:39:23;6.70;99.90
52495;DHT22;38405;53.212;5.660;2024-03-02T04:41:50;6.60;99.90
52495;DHT22;38405;53.212;5.660;2024-03-02T04:44:16;6.70;99.90
52495;DHT22;38405;53.212;5.660;2024-03-02T04:46:41;6.70;99.90
52495;DHT22;38405;53.212;5.660;2024-03-02T04:49:07;6.70;99.90
52495;DHT22;38405;53.212;5.660;2024-03-02T04:51:33;6.70;99.90
52495;DHT22;38405;53.212;5.660;2024-03-02T04:53:59;6.60;99.90
52495;DHT22;38405;53.212;5.660;2024-03-02T04:56:25;6.60;99.90
52495;DHT22;38405;53.212;5.660;2024-03-02T04:58:53;6.70;99.90
52495;DHT22;38405;53.212;5.660;2024-03-02T05:01:19;6.50;99.90
52495;DHT22;38405;53.212;5.660;2024-03-02T05:03:44;6.40;99.90
52495;DHT22;38405;53.212;5.660;2024-03-02T05:06:10;6.30;99.90
52495;DHT22;38405;53.212;5.660;2024-03-02T05:08:36;6.20;99.90
52495;DHT22;38405;53.212;5.660;2024-03-02T05:11:02;6.10;99.90
52495;DHT22;38405;53.212;5.660;2024-03-02T05:13:47;6.00;99.90
52495;DHT22;38405;53.212;5.660;2024-03-02T05:16:13;6.10;99.90
52495;DHT22;38405;53.212;5.660;2024-03-02T05:18:38;5.90;99.90
52495;DHT22;38405;53.212;5.660;2024-03-02T05:21:04;5.80;99.90
52495;DHT22;38405;53.212;5.660;2024-03-02T05:23:30;5.70;99.90
52495;DHT22;38405;53.212;5.660;2024-03-02T05:25:56;5.70;99.90
52495;DHT22;38405;53.212;5.660;2024-03-02T05:28:22;5.70;99.90
52495;DHT22;38405;53.212;5.660;2024-03-02T05:30:47;5.60;99.90
52495;DHT22;38405;53.212;5.660;2024-03-02T05:33:13;5.50;99.90
52495;DHT22;38405;53.212;5.660;2024-03-02T05:35:38;5.60;99.90
52495;DHT22;38405;53.212;5.660;2024-03-02T05:38:05;5.50;99.90
52495;DHT22;38405;53.212;5.660;2024-03-02T05:40:30;5.50;99.90
52495;DHT22;38405;53.212;5.660;2024-03-02T05:42:56;5.50;99.90
52495;DHT22;38405;53.212;5.660;2024-03-02T05:45:22;5.40;99.90
52495;DHT22;38405;53.212;5.660;2024-03-02T05:47:47;5.40;99.90
52495;DHT22;38405;53.212;5.660;2024-03-02T05:50:13;5.30;99.90
52495;DHT22;38405;53.212;5.660;2024-03-02T05:52:38;5.20;99.90
52495;DHT22;38405;53.212;5.660;2024-03-02T05:55:04;5.20;99.90
52495;DHT22;38405;53.212;5.660;2024-03-02T05:57:30;5.10;99.90
52495;DHT22;38405;53.212;5.660;2024-03-02T06:00:21;5.00;99.90
52495;DHT22;38405;53.212;5.660;2024-03-02T06:02:47;5.00;99.90
52495;DHT22;38405;53.212;5.660;2024-03-02T06:05:13;5.00;99.90
52495;DHT22;38405;53.212;5.660;2024-03-02T06:07:40;4.90;99.90
52495;DHT22;38405;53.212;5.660;2024-03-02T06:10:06;4.80;99.90
52495;DHT22;38405;53.212;5.660;2024-03-02T06:12:32;4.70;99.90
52495;DHT22;38405;53.212;5.660;2024-03-02T06:14:58;4.70;99.90
52495;DHT22;38405;53.212;5.660;2024-03-02T06:17:24;4.60;99.90
52495;DHT22;38405;53.212;5.660;2024-03-02T06:19:49;4.50;99.90
52495;DHT22;38405;53.212;5.660;2024-03-02T06:22:15;4.70;99.90
52495;DHT22;38405;53.212;5.660;2024-03-02T06:24:41;4.50;99.90
52495;DHT22;38405;53.212;5.660;2024-03-02T06:27:06;4.50;99.90
52495;DHT22;38405;53.212;5.660;2024-03-02T06:29:35;4.40;99.90
52495;DHT22;38405;53.212;5.660;2024-03-02T06:32:01;4.30;99.90
52495;DHT22;38405;53.212;5.660;2024-03-02T06:34:26;4.30;99.90
52495;DHT22;38405;53.212;5.660;2024-03-02T06:36:52;4.30;99.90
52495;DHT22;38405;53.212;5.660;2024-03-02T06:39:17;4.40;99.90
52495;DHT22;38405;53.212;5.660;2024-03-02T06:41:43;4.40;99.90
52495;DHT22;38405;53.212;5.660;2024-03-02T06:44:09;4.60;99.90
52495;DHT22;38405;53.212;5.660;2024-03-02T06:46:34;4.20;99.90
52495;DHT22;38405;53.212;5.660;2024-03-02T06:49:00;4.20;99.90
52495;DHT22;38405;53.212;5.660;2024-03-02T06:51:27;4.30;99.90
52495;DHT22;38405;53.212;5.660;2024-03-02T06:53:53;4.40;99.90
52495;DHT22;38405;53.212;5.660;2024-03-02T06:56:19;4.40;99.90
52495;DHT22;38405;53.212;5.660;2024-03-02T06:58:44;4.50;99.90
52495;DHT22;38405;53.212;5.660;2024-03-02T07:01:10;4.50;99.90
52495;DHT22;38405;53.212;5.660;2024-03-02T07:03:36;4.60;99.90
52495;DHT22;38405;53.212;5.660;2024-03-02T07:06:01;4.70;99.90
52495;DHT22;38405;53.212;5.660;2024-03-02T07:08:27;4.70;99.90
52495;DHT22;38405;53.212;5.660;2024-03-02T07:10:53;4.70;99.90
52495;DHT22;38405;53.212;5.660;2024-03-02T07:13:18;4.80;99.90
52495;DHT22;38405;53.212;5.660;2024-03-02T07:15:44;4.80;99.90
52495;DHT22;38405;53.212;5.660;2024-03-02T07:18:35;4.90;99.90
52495;DHT22;38405;53.212;5.660;2024-03-02T07:21:07;5.00;99.90
52495;DHT22;38405;53.212;5.660;2024-03-02T07:23:34;5.00;99.90
52495;DHT22;38405;53.212;5.660;2024-03-02T07:25:59;5.00;99.90
52495;DHT22;38405;53.212;5.660;2024-03-02T07:28:27;5.20;99.90
52495;DHT22;38405;53.212;5.660;2024-03-02T07:31:04;5.50;99.90
52495;DHT22;38405;53.212;5.660;2024-03-02T07:33:30;5.30;99.90
52495;DHT22;38405;53.212;5.660;2024-03-02T07:35:57;5.40;99.90
52495;DHT22;38405;53.212;5.660;2024-03-02T07:38:24;5.70;99.90
52495;DHT22;38405;53.212;5.660;2024-03-02T07:40:50;6.40;99.90
52495;DHT22;38405;53.212;5.660;2024-03-02T07:43:17;7.20;99.90
52495;DHT22;38405;53.212;5.660;2024-03-02T07:45:43;7.90;99.90
52495;DHT22;38405;53.212;5.660;2024-03-02T07:48:09;8.50;99.90
52495;DHT22;38405;53.212;5.660;2024-03-02T07:50:34;9.30;99.90
52495;DHT22;38405;53.212;5.660;2024-03-02T07:53:03;9.40;99.90
52495;DHT22;38405;53.212;5.660;2024-03-02T07:55:29;9.70;99.90
52495;DHT22;38405;53.212;5.660;2024-03-02T07:57:56;10.10;99.90
52495;DHT22;38405;53.212;5.660;2024-03-02T08:00:22;10.30;99.90
52495;DHT22;38405;53.212;5.660;2024-03-02T08:02:48;10.70;99.70
52495;DHT22;38405;53.212;5.660;2024-03-02T08:05:16;11.10;98.80
52495;DHT22;38405;53.212;5.660;2024-03-02T08:07:43;11.50;98.40
52495;DHT22;38405;53.212;5.660;2024-03-02T08:10:09;11.80;97.20
52495;DHT22;38405;53.212;5.660;2024-03-02T08:12:35;12.10;96.70
52495;DHT22;38405;53.212;5.660;2024-03-02T08:15:01;12.40;96.40
52495;DHT22;38405;53.212;5.660;2024-03-02T08:17:26;12.50;95.30
52495;DHT22;38405;53.212;5.660;2024-03-02T08:19:52;12.60;94.90
52495;DHT22;38405;53.212;5.660;2024-03-02T08:22:18;12.90;94.50
52495;DHT22;38405;53.212;5.660;2024-03-02T08:24:44;13.10;93.80
52495;DHT22;38405;53.212;5.660;2024-03-02T08:27:09;13.40;93.50
52495;DHT22;38405;53.212;5.660;2024-03-02T08:29:35;13.50;92.20
52495;DHT22;38405;53.212;5.660;2024-03-02T08:32:01;13.60;91.70
52495;DHT22;38405;53.212;5.660;2024-03-02T08:34:26;13.60;91.60
52495;DHT22;38405;53.212;5.660;2024-03-02T08:36:52;13.60;91.50
52495;DHT22;38405;53.212;5.660;2024-03-02T08:39:18;13.70;91.30
52495;DHT22;38405;53.212;5.660;2024-03-02T08:41:45;13.60;90.70
52495;DHT22;38405;53.212;5.660;2024-03-02T08:44:12;13.30;91.20
52495;DHT22;38405;53.212;5.660;2024-03-02T08:46:39;12.90;91.30
52495;DHT22;38405;53.212;5.660;2024-03-02T08:49:05;12.70;90.90
52495;DHT22;38405;53.212;5.660;2024-03-02T08:51:31;12.60;91.00
52495;DHT22;38405;53.212;5.660;2024-03-02T08:53:57;12.50;91.10
52495;DHT22;38405;53.212;5.660;2024-03-02T08:56:24;12.40;91.30
52495;DHT22;38405;53.212;5.660;2024-03-02T08:58:50;12.20;91.90
52495;DHT22;38405;53.212;5.660;2024-03-02T09:01:17;12.00;92.30
52495;DHT22;38405;53.212;5.660;2024-03-02T09:03:43;11.60;93.20
52495;DHT22;38405;53.212;5.660;2024-03-02T09:06:12;11.30;93.90
52495;DHT22;38405;53.212;5.660;2024-03-02T09:08:39;10.90;94.60
52495;DHT22;38405;53.212;5.660;2024-03-02T09:11:05;10.40;94.80
52495;DHT22;38405;53.212;5.660;2024-03-02T09:13:32;10.00;95.70
52495;DHT22;38405;53.212;5.660;2024-03-02T09:15:58;9.80;96.10
52495;DHT22;38405;53.212;5.660;2024-03-02T09:18:24;9.70;96.40
52495;DHT22;38405;53.212;5.660;2024-03-02T09:20:49;9.70;96.60
52495;DHT22;38405;53.212;5.660;2024-03-02T09:23:15;9.70;96.90
52495;DHT22;38405;53.212;5.660;2024-03-02T09:25:40;9.90;97.00
52495;DHT22;38405;53.212;5.660;2024-03-02T09:28:06;10.00;96.50
52495;DHT22;38405;53.212;5.660;2024-03-02T09:30:33;9.80;96.00
52495;DHT22;38405;53.212;5.660;2024-03-02T09:32:58;9.80;96.10
52495;DHT22;38405;53.212;5.660;2024-03-02T09:35:24;10.00;96.10
52495;DHT22;38405;53.212;5.660;2024-03-02T09:37:50;10.30;96.00
52495;DHT22;38405;53.212;5.660;2024-03-02T09:40:16;10.50;96.00
52495;DHT22;38405;53.212;5.660;2024-03-02T09:42:42;10.50;95.20
52495;DHT22;38405;53.212;5.660;2024-03-02T09:45:09;10.50;95.40
52495;DHT22;38405;53.212;5.660;2024-03-02T09:47:34;10.60;95.30
52495;DHT22;38405;53.212;5.660;2024-03-02T09:50:00;10.80;95.40
52495;DHT22;38405;53.212;5.660;2024-03-02T09:52:26;11.00;95.30
52495;DHT22;38405;53.212;5.660;2024-03-02T09:54:52;10.90;94.80
52495;DHT22;38405;53.212;5.660;2024-03-02T09:57:18;10.80;94.50
52495;DHT22;38405;53.212;5.660;2024-03-02T09:59:43;10.70;94.80
52495;DHT22;38405;53.212;5.660;2024-03-02T10:02:11;10.80;95.30
52495;DHT22;38405;53.212;5.660;2024-03-02T10:04:36;10.90;95.10
52495;DHT22;38405;53.212;5.660;2024-03-02T10:07:15;11.00;95.20
52495;DHT22;38405;53.212;5.660;2024-03-02T10:09:42;10.90;94.00
52495;DHT22;38405;53.212;5.660;2024-03-02T10:12:09;11.00;94.80
52495;DHT22;38405;53.212;5.660;2024-03-02T10:14:36;11.00;94.90
52495;DHT22;38405;53.212;5.660;2024-03-02T10:17:03;10.90;94.50
52495;DHT22;38405;53.212;5.660;2024-03-02T10:19:29;10.80;94.40
52495;DHT22;38405;53.212;5.660;2024-03-02T10:21:59;10.70;94.70
52495;DHT22;38405;53.212;5.660;2024-03-02T10:24:25;10.70;94.90
52495;DHT22;38405;53.212;5.660;2024-03-02T10:26:51;11.00;94.90
52495;DHT22;38405;53.212;5.660;2024-03-02T10:29:17;11.00;94.90
52495;DHT22;38405;53.212;5.660;2024-03-02T10:31:44;11.10;94.90
52495;DHT22;38405;53.212;5.660;2024-03-02T10:34:12;11.30;94.90
52495;DHT22;38405;53.212;5.660;2024-03-02T10:36:44;11.10;94.20
52495;DHT22;38405;53.212;5.660;2024-03-02T10:39:14;11.20;94.20
52495;DHT22;38405;53.212;5.660;2024-03-02T10:41:40;11.30;94.40
52495;DHT22;38405;53.212;5.660;2024-03-02T10:44:07;11.30;94.80
52495;DHT22;38405;53.212;5.660;2024-03-02T10:46:34;11.30;94.50
52495;DHT22;38405;53.212;5.660;2024-03-02T10:49:01;11.50;94.50
52495;DHT22;38405;53.212;5.660;2024-03-02T10:51:28;11.60;93.50
52495;DHT22;38405;53.212;5.660;2024-03-02T10:54:01;11.70;93.60
52495;DHT22;38405;53.212;5.660;2024-03-02T10:56:32;11.60;92.90
52495;DHT22;38405;53.212;5.660;2024-03-02T11:01:57;11.60;91.70
52495;DHT22;38405;53.212;5.660;2024-03-02T11:04:25;11.60;92.50
52495;DHT22;38405;53.212;5.660;2024-03-02T11:06:51;11.70;92.80
52495;DHT22;38405;53.212;5.660;2024-03-02T11:09:22;11.90;92.40
52495;DHT22;38405;53.212;5.660;2024-03-02T11:11:55;12.00;91.70
52495;DHT22;38405;53.212;5.660;2024-03-02T11:14:24;12.00;90.20
52495;DHT22;38405;53.212;5.660;2024-03-02T11:16:50;11.90;91.10
52495;DHT22;38405;53.212;5.660;2024-03-02T11:19:17;12.00;91.30
52495;DHT22;38405;53.212;5.660;2024-03-02T11:21:43;12.10;91.50
52495;DHT22;38405;53.212;5.660;2024-03-02T11:24:36;12.20;91.40
52495;DHT22;38405;53.212;5.660;2024-03-02T11:27:03;12.20;90.30
52495;DHT22;38405;53.212;5.660;2024-03-02T11:34:43;12.30;92.20
52495;DHT22;38405;53.212;5.660;2024-03-02T11:37:11;12.10;92.10
52495;DHT22;38405;53.212;5.660;2024-03-02T11:39:38;12.10;92.20
52495;DHT22;38405;53.212;5.660;2024-03-02T11:42:09;12.10;92.10
52495;DHT22;38405;53.212;5.660;2024-03-02T11:44:36;12.10;91.50
52495;DHT22;38405;53.212;5.660;2024-03-02T11:47:06;12.20;91.90
52495;DHT22;38405;53.212;5.660;2024-03-02T11:50:05;12.20;91.60
52495;DHT22;38405;53.212;5.660;2024-03-02T11:52:33;12.10;90.10
52495;DHT22;38405;53.212;5.660;2024-03-02T11:55:00;12.20;91.30
52495;DHT22;38405;53.212;5.660;2024-03-02T11:57:28;12.20;90.80
52495;DHT22;38405;53.212;5.660;2024-03-02T11:59:57;12.20;90.80
52495;DHT22;38405;53.212;5.660;2024-03-02T12:02:24;12.30;90.80
52495;DHT22;38405;53.212;5.660;2024-03-02T12:04:50;12.20;90.00
52495;DHT22;38405;53.212;5.660;2024-03-02T12:07:20;12.30;90.70
52495;DHT22;38405;53.212;5.660;2024-03-02T12:09:47;12.30;88.90
52495;DHT22;38405;53.212;5.660;2024-03-02T12:12:12;12.30;88.90
52495;DHT22;38405;53.212;5.660;2024-03-02T12:14:53;12.30;89.60
52495;DHT22;38405;53.212;5.660;2024-03-02T12:17:21;12.60;90.00
52495;DHT22;38405;53.212;5.660;2024-03-02T12:19:47;12.50;89.30
52495;DHT22;38405;53.212;5.660;2024-03-02T12:22:12;12.70;89.50
52495;DHT22;38405;53.212;5.660;2024-03-02T12:24:38;12.70;88.20
52495;DHT22;38405;53.212;5.660;2024-03-02T12:27:05;12.40;85.70
52495;DHT22;38405;53.212;5.660;2024-03-02T12:29:32;12.30;86.80
52495;DHT22;38405;53.212;5.660;2024-03-02T12:31:59;12.30;87.40
52495;DHT22;38405;53.212;5.660;2024-03-02T12:34:27;12.40;87.50
52495;DHT22;38405;53.212;5.660;2024-03-02T12:36:53;12.40;87.80
52495;DHT22;38405;53.212;5.660;2024-03-02T12:39:19;12.40;86.40
52495;DHT22;38405;53.212;5.660;2024-03-02T12:41:46;12.40;86.90
52495;DHT22;38405;53.212;5.660;2024-03-02T12:44:11;12.50;86.20
52495;DHT22;38405;53.212;5.660;2024-03-02T12:46:37;12.50;86.20
52495;DHT22;38405;53.212;5.660;2024-03-02T12:49:09;12.50;86.20
52495;DHT22;38405;53.212;5.660;2024-03-02T12:51:36;12.50;85.60
52495;DHT22;38405;53.212;5.660;2024-03-02T12:54:02;12.50;85.20
52495;DHT22;38405;53.212;5.660;2024-03-02T12:56:29;12.40;84.60
52495;DHT22;38405;53.212;5.660;2024-03-02T12:58:55;12.70;85.50
52495;DHT22;38405;53.212;5.660;2024-03-02T13:01:21;12.50;84.70
52495;DHT22;38405;53.212;5.660;2024-03-02T13:03:50;12.50;84.40
52495;DHT22;38405;53.212;5.660;2024-03-02T13:06:21;12.40;83.20
52495;DHT22;38405;53.212;5.660;2024-03-02T13:08:47;12.40;84.80
52495;DHT22;38405;53.212;5.660;2024-03-02T13:11:13;12.50;83.50
52495;DHT22;38405;53.212;5.660;2024-03-02T13:13:39;12.40;82.20
52495;DHT22;38405;53.212;5.660;2024-03-02T13:16:12;12.30;82.90
52495;DHT22;38405;53.212;5.660;2024-03-02T13:18:41;12.30;82.90
52495;DHT22;38405;53.212;5.660;2024-03-02T13:21:08;12.50;82.80
52495;DHT22;38405;53.212;5.660;2024-03-02T13:23:34;12.60;83.00
52495;DHT22;38405;53.212;5.660;2024-03-02T13:26:01;12.60;83.60
52495;DHT22;38405;53.212;5.660;2024-03-02T13:28:27;12.60;83.90
52495;DHT22;38405;53.212;5.660;2024-03-02T13:30:53;12.70;85.10
52495;DHT22;38405;53.212;5.660;2024-03-02T13:33:18;12.70;83.40
52495;DHT22;38405;53.212;5.660;2024-03-02T13:35:51;12.60;82.70
52495;DHT22;38405;53.212;5.660;2024-03-02T13:38:20;12.70;83.40
52495;DHT22;38405;53.212;5.660;2024-03-02T13:40:47;12.50;82.80
52495;DHT22;38405;53.212;5.660;2024-03-02T13:43:17;12.50;84.90
52495;DHT22;38405;53.212;5.660;2024-03-02T13:45:43;12.40;83.40
52495;DHT22;38405;53.212;5.660;2024-03-02T13:48:08;12.30;83.60
52495;DHT22;38405;53.212;5.660;2024-03-02T13:50:34;12.30;85.00
52495;DHT22;38405;53.212;5.660;2024-03-02T13:52:59;12.30;85.20
52495;DHT22;38405;53.212;5.660;2024-03-02T13:55:25;12.20;84.80
52495;DHT22;38405;53.212;5.660;2024-03-02T13:57:51;12.20;83.70
52495;DHT22;38405;53.212;5.660;2024-03-02T14:00:19;12.20;85.10
52495;DHT22;38405;53.212;5.660;2024-03-02T14:02:46;12.30;84.70
52495;DHT22;38405;53.212;5.660;2024-03-02T14:05:12;12.30;84.00
52495;DHT22;38405;53.212;5.660;2024-03-02T14:07:39;12.30;84.10
52495;DHT22;38405;53.212;5.660;2024-03-02T14:10:05;12.30;84.00
52495;DHT22;38405;53.212;5.660;2024-03-02T14:12:31;12.30;84.50
52495;DHT22;38405;53.212;5.660;2024-03-02T14:14:57;12.30;84.00
52495;DHT22;38405;53.212;5.660;2024-03-02T14:17:28;12.40;84.20
52495;DHT22;38405;53.212;5.660;2024-03-02T14:19:53;12.40;85.20
52495;DHT22;38405;53.212;5.660;2024-03-02T14:22:20;12.40;84.00
52495;DHT22;38405;53.212;5.660;2024-03-02T14:24:45;12.50;84.40
52495;DHT22;38405;53.212;5.660;2024-03-02T14:27:11;12.40;83.00
52495;DHT22;38405;53.212;5.660;2024-03-02T14:29:37;12.30;82.80
52495;DHT22;38405;53.212;5.660;2024-03-02T14:32:05;12.30;84.50
52495;DHT22;38405;53.212;5.660;2024-03-02T14:34:30;12.30;84.10
52495;DHT22;38405;53.212;5.660;2024-03-02T14:36:56;12.30;83.70
52495;DHT22;38405;53.212;5.660;2024-03-02T14:39:22;12.30;83.90
52495;DHT22;38405;53.212;5.660;2024-03-02T14:41:48;12.30;83.20
52495;DHT22;38405;53.212;5.660;2024-03-02T14:44:14;12.30;83.80
52495;DHT22;38405;53.212;5.660;2024-03-02T14:46:40;12.30;83.90
52495;DHT22;38405;53.212;5.660;2024-03-02T14:49:07;12.40;84.30
52495;DHT22;38405;53.212;5.660;2024-03-02T14:51:33;12.30;82.50
52495;DHT22;38405;53.212;5.660;2024-03-02T14:53:58;12.30;83.50
52495;DHT22;38405;53.212;5.660;2024-03-02T14:56:24;12.30;84.10
52495;DHT22;38405;53.212;5.660;2024-03-02T14:58:50;12.30;83.90
52495;DHT22;38405;53.212;5.660;2024-03-02T15:01:16;12.40;83.80
52495;DHT22;38405;53.212;5.660;2024-03-02T15:03:43;12.30;83.20
52495;DHT22;38405;53.212;5.660;2024-03-02T15:06:09;12.20;85.00
52495;DHT22;38405;53.212;5.660;2024-03-02T15:08:35;12.20;84.30
52495;DHT22;38405;53.212;5.660;2024-03-02T15:11:01;12.10;84.70
52495;DHT22;38405;53.212;5.660;2024-03-02T15:13:29;12.20;85.80
52495;DHT22;38405;53.212;5.660;2024-03-02T15:15:54;12.00;86.10
52495;DHT22;38405;53.212;5.660;2024-03-02T15:18:20;11.90;85.60
52495;DHT22;38405;53.212;5.660;2024-03-02T15:20:46;11.70;86.20
52495;DHT22;38405;53.212;5.660;2024-03-02T15:23:12;11.60;87.20
52495;DHT22;38405;53.212;5.660;2024-03-02T15:25:40;11.40;88.40
52495;DHT22;38405;53.212;5.660;2024-03-02T15:28:06;11.30;89.60
52495;DHT22;38405;53.212;5.660;2024-03-02T15:30:32;11.30;90.10
52495;DHT22;38405;53.212;5.660;2024-03-02T15:32:58;11.20;90.30
52495;DHT22;38405;53.212;5.660;2024-03-02T15:35:23;11.10;90.50
52495;DHT22;38405;53.212;5.660;2024-03-02T15:37:49;11.10;90.70
52495;DHT22;38405;53.212;5.660;2024-03-02T15:40:14;11.00;90.90
52495;DHT22;38405;53.212;5.660;2024-03-02T15:42:40;11.00;91.40
52495;DHT22;38405;53.212;5.660;2024-03-02T15:45:06;11.20;91.50
52495;DHT22;38405;53.212;5.660;2024-03-02T15:47:32;10.90;91.60
52495;DHT22;38405;53.212;5.660;2024-03-02T15:49:59;10.90;92.00
52495;DHT22;38405;53.212;5.660;2024-03-02T15:52:24;10.90;92.10